Time;durP1;ratioP1;P1;durP2;ratioP2;P2;SDS_P1;SDS_P2;PMS_P1;PMS_P2;Temp;Humidity;BMP_temperature;BMP_pressure;BME280_temperature;BME280_humidity;BME280_pressure;Samples;Min_cycle;Max_cycle;Signal;HPM_P1;HPM_P2
2021/12/25 11:21:59;;;;;;;1.27;0.70;;;;;;;;;;6135863;23;92283;-80
2021/12/25 11:24:47;;;;;;;2.27;0.70;;;;;;;;;;6138529;23;92264;-81
2021/12/25 11:27:34;;;;;;;1.10;0.70;;;;;;;;;;6133493;23;92153;-81
2021/12/25 11:30:23;;;;;;;1.43;0.70;;;;;;;;;;6113665;23;92414;-82
2021/12/25 11:36:48;;;;;;;1.77;0.90;;;;;;;;;;6106412;23;91489;-80
2021/12/25 11:39:51;;;;;;;1.30;0.70;;;;;;;;;;6083997;23;92381;-81
2021/12/25 11:42:49;;;;;;;5.53;1.20;;;;;;;;;;6083162;23;92443;-81
2021/12/25 12:09:45;;;;;;;13.93;12.90;;;;;;;;;;6102006;23;91524;-81
2021/12/25 12:12:32;;;;;;;210.73;200.20;;;;;;;;;;6101299;23;92213;-81
2021/12/25 15:10:38;;;;;;;5.53;0.90;;;;;;;;;;6136811;23;94451;-82
2021/12/25 15:13:43;;;;;;;2.53;1.20;;;;;;;;;;6141634;23;92136;-81
2021/12/25 15:16:38;;;;;;;6.17;1.90;;;;;;;;;;6141768;23;92622;-81
2021/12/25 15:23:00;;;;;;;3.40;2.23;;;;;;;;;;6142796;23;92332;-81
2021/12/25 15:25:47;;;;;;;3.00;1.50;;;;;;;;;;6141412;23;92214;-81
2021/12/25 15:28:35;;;;;;;4.73;1.67;;;;;;;;;;6141236;23;92795;-81
2021/12/25 15:31:27;;;;;;;3.77;1.20;;;;;;;;;;6144650;23;92327;-81
2021/12/25 15:34:21;;;;;;;2.23;1.40;;;;;;;;;;6143960;23;92433;-81
2021/12/25 15:37:18;;;;;;;3.20;1.20;;;;;;;;;;6148032;23;92214;-82
2021/12/25 15:40:42;;;;;;;2.50;1.20;;;;;;;;;;6147603;23;95147;-82
2021/12/25 15:43:29;;;;;;;3.30;1.20;;;;;;;;;;6152879;23;93833;-82
2021/12/25 15:46:37;;;;;;;1.80;1.10;;;;;;;;;;6151436;23;92100;-82
2021/12/25 15:49:24;;;;;;;2.23;1.30;;;;;;;;;;6154870;23;92354;-82
2021/12/25 15:52:50;;;;;;;3.40;1.70;;;;;;;;;;6153183;23;92476;-81
2021/12/25 15:55:37;;;;;;;3.50;1.60;;;;;;;;;;6126027;23;92358;-81
2021/12/25 15:58:44;;;;;;;3.07;1.40;;;;;;;;;;6146792;22;92201;-80
2021/12/25 16:01:30;;;;;;;2.30;1.10;;;;;;;;;;6154810;23;91038;-81
2021/12/25 16:04:17;;;;;;;2.00;1.40;;;;;;;;;;6156145;23;91601;-81
2021/12/25 16:23:00;;;;;;;3.67;2.17;;;;;;;;;;6113612;23;92249;-81
2021/12/25 16:26:21;;;;;;;4.70;2.07;;;;;;;;;;6111337;23;92266;-81
2021/12/25 16:29:08;;;;;;;4.97;2.23;;;;;;;;;;6111215;23;92268;-81
2021/12/25 16:32:11;;;;;;;6.03;2.73;;;;;;;;;;6112212;23;91535;-81
2021/12/25 16:34:58;;;;;;;2.90;2.10;;;;;;;;;;6110610;23;92191;-81
2021/12/25 16:41:27;;;;;;;3.20;2.20;;;;;;;;;;6109958;23;94796;-81
2021/12/25 16:44:15;;;;;;;5.83;2.30;;;;;;;;;;6111529;23;93819;-81
2021/12/25 16:47:05;;;;;;;4.53;2.30;;;;;;;;;;6110959;23;92292;-81
2021/12/25 16:49:52;;;;;;;4.30;2.13;;;;;;;;;;6110414;23;92200;-81
2021/12/25 16:52:44;;;;;;;6.77;4.10;;;;;;;;;;6112559;23;92652;-81
2021/12/25 16:55:32;;;;;;;3.70;2.20;;;;;;;;;;6112359;23;92361;-81
2021/12/25 16:58:24;;;;;;;6.30;2.50;;;;;;;;;;6113479;23;92302;-81
2021/12/25 17:01:11;;;;;;;3.00;1.80;;;;;;;;;;6114508;23;91414;-82
2021/12/25 17:04:08;;;;;;;5.00;2.13;;;;;;;;;;6113662;23;92186;-81
2021/12/25 17:06:55;;;;;;;3.20;1.97;;;;;;;;;;6114701;23;92258;-81
2021/12/25 17:09:58;;;;;;;3.73;1.83;;;;;;;;;;6113620;23;94551;-80
2021/12/25 17:12:45;;;;;;;4.20;1.90;;;;;;;;;;6113422;23;92385;-80
2021/12/25 17:15:41;;;;;;;1.83;1.30;;;;;;;;;;6113032;23;92267;-80
2021/12/25 17:18:28;;;;;;;2.80;1.53;;;;;;;;;;6113544;23;92377;-81
2021/12/25 17:21:21;;;;;;;2.80;1.70;;;;;;;;;;6111106;23;92328;-81
2021/12/25 17:24:07;;;;;;;3.77;1.37;;;;;;;;;;6110414;23;92267;-81
2021/12/25 17:27:04;;;;;;;3.20;1.73;;;;;;;;;;6109127;23;92472;-81
2021/12/25 17:29:52;;;;;;;3.40;1.90;;;;;;;;;;6111032;23;92478;-80
2021/12/25 17:32:59;;;;;;;3.23;1.53;;;;;;;;;;6109446;23;92236;-81
2021/12/25 17:35:47;;;;;;;1.97;1.40;;;;;;;;;;6108253;23;92188;-81
2021/12/25 17:38:42;;;;;;;3.63;1.90;;;;;;;;;;6107500;23;94743;-81
2021/12/25 17:41:41;;;;;;;2.37;1.90;;;;;;;;;;6112060;23;94730;-80
2021/12/25 17:44:31;;;;;;;3.17;1.53;;;;;;;;;;6114585;23;92222;-80
2021/12/25 17:47:46;;;;;;;2.97;2.10;;;;;;;;;;6112511;23;92278;-81
2021/12/25 17:50:34;;;;;;;3.23;2.37;;;;;;;;;;6113892;23;92604;-79
2021/12/25 17:53:21;;;;;;;3.60;2.47;;;;;;;;;;6122989;23;92459;-80
2021/12/25 17:56:08;;;;;;;5.03;2.40;;;;;;;;;;6114522;23;92131;-80
2021/12/25 17:59:10;;;;;;;2.87;2.13;;;;;;;;;;6112251;23;91566;-81
2021/12/25 18:01:56;;;;;;;3.30;2.23;;;;;;;;;;6113143;23;92679;-80
2021/12/25 18:05:03;;;;;;;3.30;2.30;;;;;;;;;;6113546;23;92434;-81
2021/12/25 18:07:50;;;;;;;4.53;2.13;;;;;;;;;;6110556;23;94754;-80
2021/12/25 18:10:37;;;;;;;3.07;1.57;;;;;;;;;;6109677;23;92273;-80
2021/12/25 18:13:23;;;;;;;3.30;1.90;;;;;;;;;;6114266;23;92648;-79
2021/12/25 18:16:18;;;;;;;4.03;1.90;;;;;;;;;;6113345;23;92256;-81
2021/12/25 18:19:05;;;;;;;4.23;1.93;;;;;;;;;;6113151;23;92237;-81
2021/12/25 18:22:08;;;;;;;2.80;1.60;;;;;;;;;;6134267;23;92159;-81
2021/12/25 18:24:54;;;;;;;3.57;1.57;;;;;;;;;;6140004;23;92408;-81
2021/12/25 18:28:11;;;;;;;2.83;1.77;;;;;;;;;;6142483;23;92419;-81
2021/12/25 18:31:00;;;;;;;4.23;1.97;;;;;;;;;;6118530;23;92284;-81
2021/12/25 18:33:51;;;;;;;3.33;1.70;;;;;;;;;;6139566;23;92236;-81
2021/12/25 18:36:38;;;;;;;3.27;1.40;;;;;;;;;;6137180;23;95212;-81
2021/12/25 18:39:41;;;;;;;5.10;1.90;;;;;;;;;;6136884;23;94908;-81
2021/12/25 18:42:29;;;;;;;2.67;1.87;;;;;;;;;;6141877;23;92219;-81
2021/12/25 18:45:21;;;;;;;4.50;2.10;;;;;;;;;;6142241;23;92237;-81
2021/12/25 18:48:09;;;;;;;2.97;2.00;;;;;;;;;;6142567;23;92146;-81
2021/12/25 18:51:01;;;;;;;4.23;2.53;;;;;;;;;;6139438;23;93281;-82
2021/12/25 18:53:50;;;;;;;3.67;2.33;;;;;;;;;;6141591;23;92212;-81
2021/12/25 18:56:37;;;;;;;3.90;2.93;;;;;;;;;;6139532;23;91548;-78
2021/12/25 18:59:23;;;;;;;7.33;5.70;;;;;;;;;;6140318;23;92399;-81
2021/12/25 19:05:49;;;;;;;7.53;6.43;;;;;;;;;;6145385;23;94569;-82
2021/12/25 19:08:38;;;;;;;12.53;6.40;;;;;;;;;;6141035;23;92321;-81
2021/12/25 19:11:43;;;;;;;9.10;5.87;;;;;;;;;;6139417;23;93565;-81
2021/12/25 19:14:30;;;;;;;8.70;4.80;;;;;;;;;;6139382;23;92321;-81
2021/12/25 19:17:22;;;;;;;9.27;4.43;;;;;;;;;;6141459;23;92152;-81
2021/12/25 19:20:10;;;;;;;5.53;4.23;;;;;;;;;;6141464;23;92530;-81
2021/12/25 19:23:07;;;;;;;6.30;4.20;;;;;;;;;;6141472;23;92373;-81
2021/12/25 19:25:55;;;;;;;5.63;4.10;;;;;;;;;;6142111;23;92087;-81
2021/12/25 19:29:04;;;;;;;5.53;4.07;;;;;;;;;;6142519;23;92312;-81
2021/12/25 19:31:51;;;;;;;6.37;4.17;;;;;;;;;;6145817;22;92263;-81
2021/12/25 19:34:44;;;;;;;6.80;4.60;;;;;;;;;;6130622;23;95005;-80
2021/12/25 19:37:31;;;;;;;8.60;4.10;;;;;;;;;;6146062;23;93901;-81
2021/12/25 19:40:26;;;;;;;4.93;4.10;;;;;;;;;;6140378;23;92034;-81
2021/12/25 19:43:12;;;;;;;8.93;5.17;;;;;;;;;;6141833;23;92139;-81
2021/12/25 19:46:08;;;;;;;6.77;4.77;;;;;;;;;;6142307;23;92721;-81
2021/12/25 19:48:58;;;;;;;10.60;5.27;;;;;;;;;;6140633;23;92296;-80
2021/12/25 19:51:46;;;;;;;4.43;3.27;;;;;;;;;;6140320;23;92160;-81
2021/12/25 19:54:33;;;;;;;4.07;2.10;;;;;;;;;;6143724;23;91428;-81
2021/12/25 20:01:02;;;;;;;2.37;1.50;;;;;;;;;;6144457;23;92240;-80
2021/12/25 20:03:51;;;;;;;5.33;1.60;;;;;;;;;;6139393;23;94637;-81
2021/12/25 20:10:22;;;;;;;3.17;1.50;;;;;;;;;;6144873;23;92536;-81
2021/12/25 20:13:12;;;;;;;1.53;1.23;;;;;;;;;;6142167;23;92427;-81
2021/12/25 20:16:19;;;;;;;1.50;1.00;;;;;;;;;;6140884;23;92218;-81
2021/12/25 20:19:07;;;;;;;2.10;1.23;;;;;;;;;;6144388;23;92240;-81
2021/12/25 20:22:14;;;;;;;2.10;1.40;;;;;;;;;;6143637;23;92279;-81
2021/12/25 20:25:01;;;;;;;1.87;1.40;;;;;;;;;;6144210;23;92405;-81
2021/12/25 20:28:19;;;;;;;4.33;1.40;;;;;;;;;;6141149;23;92217;-81
2021/12/25 20:31:06;;;;;;;2.40;1.40;;;;;;;;;;6122294;23;92409;-81
2021/12/25 20:33:54;;;;;;;2.40;1.20;;;;;;;;;;6139095;23;94902;-81
2021/12/25 20:36:44;;;;;;;1.30;1.13;;;;;;;;;;6140046;23;94639;-81
2021/12/25 20:39:31;;;;;;;2.40;1.13;;;;;;;;;;6140428;23;92256;-81
2021/12/25 21:54:56;;;;;;;2.20;1.53;;;;;;;;;;6191769;22;92520;-80
2021/12/25 21:57:43;;;;;;;4.97;1.30;;;;;;;;;;6142421;23;91711;-80
2021/12/25 22:00:50;;;;;;;2.30;1.20;;;;;;;;;;6139925;23;92445;-80
2021/12/25 22:03:36;;;;;;;2.13;1.33;;;;;;;;;;6138792;23;92241;-80
2021/12/25 22:06:45;;;;;;;2.10;1.50;;;;;;;;;;6137170;23;94919;-80
2021/12/25 22:09:34;;;;;;;2.43;1.43;;;;;;;;;;6118210;23;92179;-80
2021/12/25 22:15:50;;;;;;;5.00;1.50;;;;;;;;;;6138540;23;92324;-80
2021/12/25 22:18:37;;;;;;;2.57;1.20;;;;;;;;;;6138472;23;92124;-80
2021/12/25 22:21:35;;;;;;;2.97;1.30;;;;;;;;;;6138316;23;92314;-80
2021/12/25 22:24:22;;;;;;;1.77;1.30;;;;;;;;;;6138071;23;92635;-79
2021/12/25 22:27:18;;;;;;;2.70;1.57;;;;;;;;;;6139302;23;91517;-79
2021/12/25 22:30:09;;;;;;;2.10;1.30;;;;;;;;;;6137077;23;92253;-80
2021/12/25 22:36:38;;;;;;;3.50;1.77;;;;;;;;;;6135708;23;94630;-80
2021/12/25 22:39:25;;;;;;;3.67;1.70;;;;;;;;;;6137235;23;94881;-80
2021/12/25 22:42:26;;;;;;;2.90;1.80;;;;;;;;;;6136668;23;92264;-80
2021/12/25 22:45:14;;;;;;;2.80;1.83;;;;;;;;;;6134716;23;92237;-80
2021/12/25 22:48:09;;;;;;;4.53;1.60;;;;;;;;;;6136215;23;92437;-81
2021/12/25 22:50:57;;;;;;;2.30;1.27;;;;;;;;;;6135774;23;92438;-80
2021/12/25 22:54:04;;;;;;;2.97;1.53;;;;;;;;;;6136885;23;92313;-80
2021/12/25 22:56:50;;;;;;;2.73;1.43;;;;;;;;;;6136855;23;91648;-80
2021/12/25 23:00:07;;;;;;;3.33;1.50;;;;;;;;;;6136377;23;92697;-81
2021/12/25 23:02:55;;;;;;;1.60;1.20;;;;;;;;;;6115027;23;92271;-80
2021/12/25 23:05:47;;;;;;;1.70;1.50;;;;;;;;;;6135406;23;94643;-80
2021/12/25 23:08:39;;;;;;;2.70;1.40;;;;;;;;;;6116807;23;92283;-80
2021/12/25 23:11:55;;;;;;;2.90;1.83;;;;;;;;;;6134809;23;93748;-80
2021/12/25 23:14:42;;;;;;;2.97;2.30;;;;;;;;;;6112556;23;92354;-80
2021/12/25 23:17:30;;;;;;;1.67;1.30;;;;;;;;;;6115898;23;92185;-80
2021/12/25 23:20:17;;;;;;;2.00;1.30;;;;;;;;;;6115992;23;92312;-81
2021/12/25 23:23:03;;;;;;;1.90;1.27;;;;;;;;;;6114386;23;93644;-80
2021/12/25 23:25:51;;;;;;;3.00;1.80;;;;;;;;;;6135456;23;92350;-80
2021/12/25 23:29:09;;;;;;;2.10;1.53;;;;;;;;;;6132796;23;92295;-80
2021/12/25 23:31:56;;;;;;;3.87;2.00;;;;;;;;;;6135396;23;92322;-80
2021/12/25 23:38:34;;;;;;;4.87;2.20;;;;;;;;;;6148490;22;94736;-80
2021/12/25 23:41:22;;;;;;;4.30;3.03;;;;;;;;;;6136058;23;92117;-79
2021/12/25 23:44:40;;;;;;;5.87;3.30;;;;;;;;;;6132175;23;92259;-79
